sensor_id;sensor_type;location;lat;lon;timestamp;pressure;altitude;pressure_sealevel;temperature;humidity
46534;BME280;32260;52.008;4.752;2022-12-07T00:01:38;101992.53;;;6.33;73.31
46534;BME280;32260;52.008;4.752;2022-12-07T00:04:06;101987.22;;;6.31;74.34
46534;BME280;32260;52.008;4.752;2022-12-07T00:09:12;101969.16;;;6.56;74.20
46534;BME280;32260;52.008;4.752;2022-12-07T00:11:39;101963.97;;;6.61;74.17
46534;BME280;32260;52.008;4.752;2022-12-07T00:14:10;101957.03;;;6.66;74.15
46534;BME280;32260;52.008;4.752;2022-12-07T00:16:37;101958.81;;;6.67;74.27
46534;BME280;32260;52.008;4.752;2022-12-07T00:19:04;101950.03;;;6.68;73.90
46534;BME280;32260;52.008;4.752;2022-12-07T00:21:32;101967.63;;;6.69;73.81
46534;BME280;32260;52.008;4.752;2022-12-07T00:23:59;101971.06;;;6.65;74.15
46534;BME280;32260;52.008;4.752;2022-12-07T00:29:04;101957.88;;;6.65;74.38
46534;BME280;32260;52.008;4.752;2022-12-07T00:31:36;101955.25;;;6.65;74.30
46534;BME280;32260;52.008;4.752;2022-12-07T00:34:05;101951.75;;;6.66;73.78
46534;BME280;32260;52.008;4.752;2022-12-07T00:36:32;101943.84;;;6.64;74.31
46534;BME280;32260;52.008;4.752;2022-12-07T00:39:00;101941.22;;;6.66;73.79
46534;BME280;32260;52.008;4.752;2022-12-07T00:41:28;101941.19;;;6.63;73.71
46534;BME280;32260;52.008;4.752;2022-12-07T00:43:55;101932.31;;;6.58;74.01
46534;BME280;32260;52.008;4.752;2022-12-07T00:46:22;101941.97;;;6.56;73.79
46534;BME280;32260;52.008;4.752;2022-12-07T00:48:49;101941.91;;;6.53;73.49
46534;BME280;32260;52.008;4.752;2022-12-07T00:51:18;101933.97;;;6.50;73.58
46534;BME280;32260;52.008;4.752;2022-12-07T00:53:44;101940.97;;;6.47;73.59
46534;BME280;32260;52.008;4.752;2022-12-07T00:56:15;101950.56;;;6.44;73.39
46534;BME280;32260;52.008;4.752;2022-12-07T00:58:41;101942.56;;;6.36;73.70
46534;BME280;32260;52.008;4.752;2022-12-07T01:01:08;101939.97;;;6.39;73.82
46534;BME280;32260;52.008;4.752;2022-12-07T01:03:35;101951.47;;;6.44;73.59
46534;BME280;32260;52.008;4.752;2022-12-07T01:06:04;101947.16;;;6.50;73.57
46534;BME280;32260;52.008;4.752;2022-12-07T01:08:31;101941.97;;;6.54;73.89
46534;BME280;32260;52.008;4.752;2022-12-07T01:11:02;101949.88;;;6.57;73.90
46534;BME280;32260;52.008;4.752;2022-12-07T01:13:29;101951.72;;;6.63;73.76
46534;BME280;32260;52.008;4.752;2022-12-07T01:15:58;101950.84;;;6.64;74.08
46534;BME280;32260;52.008;4.752;2022-12-07T01:18:26;101955.22;;;6.62;74.34
46534;BME280;32260;52.008;4.752;2022-12-07T01:23:58;101946.47;;;6.63;74.39
46534;BME280;32260;52.008;4.752;2022-12-07T01:26:25;101952.63;;;6.67;74.05
46534;BME280;32260;52.008;4.752;2022-12-07T01:28:51;101958.88;;;6.72;73.71
46534;BME280;32260;52.008;4.752;2022-12-07T01:31:20;101958.81;;;6.70;73.90
46534;BME280;32260;52.008;4.752;2022-12-07T01:33:50;101953.56;;;6.70;73.74
46534;BME280;32260;52.008;4.752;2022-12-07T01:36:20;101954.44;;;6.69;73.61
46534;BME280;32260;52.008;4.752;2022-12-07T01:38:49;101949.13;;;6.66;73.81
46534;BME280;32260;52.008;4.752;2022-12-07T01:41:18;101952.63;;;6.67;73.70
46534;BME280;32260;52.008;4.752;2022-12-07T01:47:00;101933.31;;;6.66;73.70
46534;BME280;32260;52.008;4.752;2022-12-07T01:49:31;101933.38;;;6.69;73.54
46534;BME280;32260;52.008;4.752;2022-12-07T01:52:18;101940.44;;;6.72;73.42
46534;BME280;32260;52.008;4.752;2022-12-07T01:54:49;101940.31;;;6.64;73.15
46534;BME280;32260;52.008;4.752;2022-12-07T01:57:17;101937.66;;;6.61;73.40
46534;BME280;32260;52.008;4.752;2022-12-07T01:59:45;101937.66;;;6.61;73.43
46534;BME280;32260;52.008;4.752;2022-12-07T02:02:19;101931.53;;;6.63;73.28
46534;BME280;32260;52.008;4.752;2022-12-07T02:04:46;101940.31;;;6.64;73.31
46534;BME280;32260;52.008;4.752;2022-12-07T02:07:13;101934.16;;;6.63;73.18
46534;BME280;32260;52.008;4.752;2022-12-07T02:09:39;101938.56;;;6.64;73.50
46534;BME280;32260;52.008;4.752;2022-12-07T02:12:06;101931.53;;;6.63;73.30
46534;BME280;32260;52.008;4.752;2022-12-07T02:14:32;101942.94;;;6.64;73.19
46534;BME280;32260;52.008;4.752;2022-12-07T02:18:06;101939.50;;;6.68;73.18
46534;BME280;32260;52.008;4.752;2022-12-07T02:20:20;101932.56;;;6.73;72.98
46534;BME280;32260;52.008;4.752;2022-12-07T02:23:19;101930.75;;;6.69;72.94
46534;BME280;32260;52.008;4.752;2022-12-07T02:29:05;101928.06;;;6.68;72.60
46534;BME280;32260;52.008;4.752;2022-12-07T02:31:34;101928.91;;;6.65;72.64
46534;BME280;32260;52.008;4.752;2022-12-07T02:34:08;101933.34;;;6.68;72.42
46534;BME280;32260;52.008;4.752;2022-12-07T02:36:40;101932.41;;;6.64;72.54
46534;BME280;32260;52.008;4.752;2022-12-07T02:39:20;101925.47;;;6.69;72.13
46534;BME280;32260;52.008;4.752;2022-12-07T02:41:55;101919.31;;;6.69;72.31
46534;BME280;32260;52.008;4.752;2022-12-07T02:44:25;101917.53;;;6.68;72.39
46534;BME280;32260;52.008;4.752;2022-12-07T02:47:01;101926.34;;;6.70;72.19
46534;BME280;32260;52.008;4.752;2022-12-07T02:49:29;101913.13;;;6.65;72.12
46534;BME280;32260;52.008;4.752;2022-12-07T02:51:56;101913.97;;;6.64;72.53
46534;BME280;32260;52.008;4.752;2022-12-07T02:54:22;101911.34;;;6.64;72.14
46534;BME280;32260;52.008;4.752;2022-12-07T02:56:54;101906.06;;;6.64;72.23
46534;BME280;32260;52.008;4.752;2022-12-07T03:06:01;101925.41;;;6.63;72.18
46534;BME280;32260;52.008;4.752;2022-12-07T03:10:40;101927.97;;;6.61;72.46
46534;BME280;32260;52.008;4.752;2022-12-07T03:13:18;101923.56;;;6.59;72.62
46534;BME280;32260;52.008;4.752;2022-12-07T03:16:08;101920.16;;;6.66;72.69
46534;BME280;32260;52.008;4.752;2022-12-07T03:18:42;101925.34;;;6.60;72.49
46534;BME280;32260;52.008;4.752;2022-12-07T03:21:14;101920.91;;;6.56;72.78
46534;BME280;32260;52.008;4.752;2022-12-07T03:23:43;101915.56;;;6.51;72.71
46534;BME280;32260;52.008;4.752;2022-12-07T03:26:13;101917.25;;;6.46;72.51
46534;BME280;32260;52.008;4.752;2022-12-07T03:28:46;101921.59;;;6.42;72.60
46534;BME280;32260;52.008;4.752;2022-12-07T03:31:21;101907.47;;;6.37;72.46
46534;BME280;32260;52.008;4.752;2022-12-07T03:33:57;101907.41;;;6.34;72.45
46534;BME280;32260;52.008;4.752;2022-12-07T03:36:31;101920.53;;;6.31;72.42
46534;BME280;32260;52.008;4.752;2022-12-07T03:39:13;101927.53;;;6.30;72.75
46534;BME280;32260;52.008;4.752;2022-12-07T03:41:43;101918.03;;;6.40;72.78
46534;BME280;32260;52.008;4.752;2022-12-07T03:44:10;101921.47;;;6.33;73.02
46534;BME280;32260;52.008;4.752;2022-12-07T03:49:23;101905.00;;;6.48;73.06
46534;BME280;32260;52.008;4.752;2022-12-07T03:54:59;101898.06;;;6.56;73.25
46534;BME280;32260;52.008;4.752;2022-12-07T03:57:28;101891.94;;;6.57;73.26
46534;BME280;32260;52.008;4.752;2022-12-07T03:59:56;101892.88;;;6.59;72.71
46534;BME280;32260;52.008;4.752;2022-12-07T04:02:24;101892.03;;;6.63;72.72
46534;BME280;32260;52.008;4.752;2022-12-07T04:04:52;101890.31;;;6.66;72.48
46534;BME280;32260;52.008;4.752;2022-12-07T04:07:18;101891.19;;;6.66;72.37
46534;BME280;32260;52.008;4.752;2022-12-07T04:09:44;101890.31;;;6.67;72.26
46534;BME280;32260;52.008;4.752;2022-12-07T04:12:10;101892.13;;;6.70;72.23
46534;BME280;32260;52.008;4.752;2022-12-07T04:14:37;101893.88;;;6.69;72.10
46534;BME280;32260;52.008;4.752;2022-12-07T04:17:03;101888.56;;;6.66;72.19
46534;BME280;32260;52.008;4.752;2022-12-07T04:19:31;101893.78;;;6.63;71.78
46534;BME280;32260;52.008;4.752;2022-12-07T04:22:00;101888.44;;;6.57;71.78
46534;BME280;32260;52.008;4.752;2022-12-07T04:24:27;101891.00;;;6.52;71.98
46534;BME280;32260;52.008;4.752;2022-12-07T04:26:54;101889.22;;;6.48;71.75
46534;BME280;32260;52.008;4.752;2022-12-07T04:29:20;101888.22;;;6.41;71.87
46534;BME280;32260;52.008;4.752;2022-12-07T04:31:47;101882.03;;;6.38;71.76
46534;BME280;32260;52.008;4.752;2022-12-07T04:34:14;101881.06;;;6.32;71.49
46534;BME280;32260;52.008;4.752;2022-12-07T04:36:41;101877.50;;;6.29;71.59
46534;BME280;32260;52.008;4.752;2022-12-07T04:39:18;101879.25;;;6.27;71.77
46534;BME280;32260;52.008;4.752;2022-12-07T04:41:45;101892.38;;;6.25;71.78
46534;BME280;32260;52.008;4.752;2022-12-07T04:44:13;101891.50;;;6.26;71.87
46534;BME280;32260;52.008;4.752;2022-12-07T04:46:41;101906.41;;;6.24;72.07
46534;BME280;32260;52.008;4.752;2022-12-07T04:49:08;101906.13;;;6.06;73.00
46534;BME280;32260;52.008;4.752;2022-12-07T04:51:34;101913.19;;;6.08;73.25
46534;BME280;32260;52.008;4.752;2022-12-07T04:54:00;101897.53;;;6.19;72.98
46534;BME280;32260;52.008;4.752;2022-12-07T04:56:26;101885.38;;;6.24;73.16
46534;BME280;32260;52.008;4.752;2022-12-07T04:58:53;101873.19;;;6.34;73.13
46534;BME280;32260;52.008;4.752;2022-12-07T05:01:20;101875.03;;;6.38;73.19
46534;BME280;32260;52.008;4.752;2022-12-07T05:03:47;101867.06;;;6.35;72.75
46534;BME280;32260;52.008;4.752;2022-12-07T05:06:13;101872.41;;;6.41;72.80
46534;BME280;32260;52.008;4.752;2022-12-07T05:08:40;101863.66;;;6.41;72.72
46534;BME280;32260;52.008;4.752;2022-12-07T05:11:07;101861.00;;;6.39;72.72
46534;BME280;32260;52.008;4.752;2022-12-07T05:13:34;101861.00;;;6.39;72.84
46534;BME280;32260;52.008;4.752;2022-12-07T05:16:01;101862.72;;;6.36;72.59
46534;BME280;32260;52.008;4.752;2022-12-07T05:18:27;101862.66;;;6.32;72.39
46534;BME280;32260;52.008;4.752;2022-12-07T05:20:53;101860.84;;;6.28;72.44
46534;BME280;32260;52.008;4.752;2022-12-07T05:23:19;101858.19;;;6.27;72.31
46534;BME280;32260;52.008;4.752;2022-12-07T05:25:46;101855.47;;;6.21;72.10
46534;BME280;32260;52.008;4.752;2022-12-07T05:28:12;101864.22;;;6.18;72.19
46534;BME280;32260;52.008;4.752;2022-12-07T05:30:39;101865.09;;;6.19;72.22
46534;BME280;32260;52.008;4.752;2022-12-07T05:33:05;101863.38;;;6.21;72.25
46534;BME280;32260;52.008;4.752;2022-12-07T05:35:31;101867.72;;;6.20;72.38
46534;BME280;32260;52.008;4.752;2022-12-07T05:37:57;101866.03;;;6.22;72.30
46534;BME280;32260;52.008;4.752;2022-12-07T05:40:24;101867.75;;;6.22;72.21
46534;BME280;32260;52.008;4.752;2022-12-07T05:42:50;101866.94;;;6.24;72.23
46534;BME280;32260;52.008;4.752;2022-12-07T05:45:16;101872.25;;;6.29;72.30
46534;BME280;32260;52.008;4.752;2022-12-07T05:47:42;101868.81;;;6.33;72.46
46534;BME280;32260;52.008;4.752;2022-12-07T05:50:08;101880.22;;;6.35;72.46
46534;BME280;32260;52.008;4.752;2022-12-07T05:52:34;101877.59;;;6.35;72.45
46534;BME280;32260;52.008;4.752;2022-12-07T05:55:01;101881.97;;;6.33;72.41
46534;BME280;32260;52.008;4.752;2022-12-07T05:57:27;101876.66;;;6.31;72.42
46534;BME280;32260;52.008;4.752;2022-12-07T05:59:53;101863.47;;;6.27;72.61
46534;BME280;32260;52.008;4.752;2022-12-07T06:02:19;101874.00;;;6.27;72.71
46534;BME280;32260;52.008;4.752;2022-12-07T06:04:46;101872.22;;;6.26;72.59
46534;BME280;32260;52.008;4.752;2022-12-07T06:07:15;101867.81;;;6.23;72.58
46534;BME280;32260;52.008;4.752;2022-12-07T06:09:41;101866.88;;;6.20;72.52
46534;BME280;32260;52.008;4.752;2022-12-07T06:12:10;101877.34;;;6.17;72.32
46534;BME280;32260;52.008;4.752;2022-12-07T06:14:56;101876.44;;;6.14;72.44
46534;BME280;32260;52.008;4.752;2022-12-07T06:17:22;101871.97;;;6.10;72.35
46534;BME280;32260;52.008;4.752;2022-12-07T06:19:49;101873.66;;;6.05;72.19
46534;BME280;32260;52.008;4.752;2022-12-07T06:22:15;101876.19;;;5.99;71.98
46534;BME280;32260;52.008;4.752;2022-12-07T06:24:42;101870.00;;;5.97;72.11
46534;BME280;32260;52.008;4.752;2022-12-07T06:27:08;101868.16;;;5.91;72.13
46534;BME280;32260;52.008;4.752;2022-12-07T06:29:34;101868.91;;;5.84;72.00
46534;BME280;32260;52.008;4.752;2022-12-07T06:32:01;101873.22;;;5.80;71.82
46534;BME280;32260;52.008;4.752;2022-12-07T06:34:27;101874.91;;;5.75;71.97
46534;BME280;32260;52.008;4.752;2022-12-07T06:36:54;101871.31;;;5.70;71.76
46534;BME280;32260;52.008;4.752;2022-12-07T06:39:23;101872.13;;;5.66;71.99
46534;BME280;32260;52.008;4.752;2022-12-07T06:41:50;101875.53;;;5.60;71.88
46534;BME280;32260;52.008;4.752;2022-12-07T06:44:18;101879.91;;;5.60;71.99
46534;BME280;32260;52.008;4.752;2022-12-07T06:46:44;101876.38;;;5.58;72.11
46534;BME280;32260;52.008;4.752;2022-12-07T06:49:10;101879.84;;;5.57;72.24
46534;BME280;32260;52.008;4.752;2022-12-07T06:51:37;101892.13;;;5.58;72.00
46534;BME280;32260;52.008;4.752;2022-12-07T06:54:07;101898.31;;;5.60;72.13
46534;BME280;32260;52.008;4.752;2022-12-07T06:56:33;101902.75;;;5.64;72.39
46534;BME280;32260;52.008;4.752;2022-12-07T06:58:59;101901.06;;;5.66;72.69
46534;BME280;32260;52.008;4.752;2022-12-07T07:01:25;101907.25;;;5.70;72.80
46534;BME280;32260;52.008;4.752;2022-12-07T07:03:51;101899.44;;;5.74;72.85
46534;BME280;32260;52.008;4.752;2022-12-07T07:06:18;101898.59;;;5.77;73.00
46534;BME280;32260;52.008;4.752;2022-12-07T07:08:44;101887.22;;;5.79;73.05
46534;BME280;32260;52.008;4.752;2022-12-07T07:11:10;101887.31;;;5.82;73.17
46534;BME280;32260;52.008;4.752;2022-12-07T07:13:37;101884.69;;;5.84;73.19
46534;BME280;32260;52.008;4.752;2022-12-07T07:16:04;101897.81;;;5.82;73.35
46534;BME280;32260;52.008;4.752;2022-12-07T07:18:30;101891.63;;;5.79;73.05
46534;BME280;32260;52.008;4.752;2022-12-07T07:20:57;101888.06;;;5.75;73.10
46534;BME280;32260;52.008;4.752;2022-12-07T07:23:23;101890.59;;;5.71;73.01
46534;BME280;32260;52.008;4.752;2022-12-07T07:25:50;101887.84;;;5.64;73.01
46534;BME280;32260;52.008;4.752;2022-12-07T07:28:17;101892.22;;;5.61;72.76
46534;BME280;32260;52.008;4.752;2022-12-07T07:30:43;101878.13;;;5.59;73.06
46534;BME280;32260;52.008;4.752;2022-12-07T07:33:10;101880.75;;;5.57;73.02
46534;BME280;32260;52.008;4.752;2022-12-07T07:35:36;101885.06;;;5.54;73.06
46534;BME280;32260;52.008;4.752;2022-12-07T07:38:03;101886.75;;;5.50;72.99
46534;BME280;32260;52.008;4.752;2022-12-07T07:40:29;101891.09;;;5.48;72.72
46534;BME280;32260;52.008;4.752;2022-12-07T07:42:56;101883.16;;;5.43;72.93
46534;BME280;32260;52.008;4.752;2022-12-07T07:45:24;101888.31;;;5.40;72.73
46534;BME280;32260;52.008;4.752;2022-12-07T07:47:51;101897.03;;;5.36;72.71
46534;BME280;32260;52.008;4.752;2022-12-07T07:50:17;101901.44;;;5.37;72.64
46534;BME280;32260;52.008;4.752;2022-12-07T07:52:44;101894.41;;;5.38;72.57
46534;BME280;32260;52.008;4.752;2022-12-07T07:55:11;101899.69;;;5.39;72.84
46534;BME280;32260;52.008;4.752;2022-12-07T07:57:38;101891.88;;;5.42;73.08
46534;BME280;32260;52.008;4.752;2022-12-07T08:00:08;101905.16;;;5.50;73.16
46534;BME280;32260;52.008;4.752;2022-12-07T08:02:35;101900.84;;;5.54;73.19
46534;BME280;32260;52.008;4.752;2022-12-07T08:05:02;101890.34;;;5.55;73.69
46534;BME280;32260;52.008;4.752;2022-12-07T08:07:28;101893.09;;;5.61;73.89
46534;BME280;32260;52.008;4.752;2022-12-07T08:09:55;101892.31;;;5.67;74.00
46534;BME280;32260;52.008;4.752;2022-12-07T08:12:21;101893.22;;;5.71;74.14
46534;BME280;32260;52.008;4.752;2022-12-07T08:14:47;101889.81;;;5.76;73.92
46534;BME280;32260;52.008;4.752;2022-12-07T08:17:13;101893.41;;;5.80;74.03
46534;BME280;32260;52.008;4.752;2022-12-07T08:19:39;101892.56;;;5.82;74.08
46534;BME280;32260;52.008;4.752;2022-12-07T08:22:05;101890.84;;;5.85;73.62
46534;BME280;32260;52.008;4.752;2022-12-07T08:24:34;101892.59;;;5.86;73.99
46534;BME280;32260;52.008;4.752;2022-12-07T08:27:00;101891.72;;;5.83;73.97
46534;BME280;32260;52.008;4.752;2022-12-07T08:29:26;101896.13;;;5.85;73.70
46534;BME280;32260;52.008;4.752;2022-12-07T08:31:52;101891.75;;;5.87;73.67
46534;BME280;32260;52.008;4.752;2022-12-07T08:34:18;101895.31;;;5.90;73.53
46534;BME280;32260;52.008;4.752;2022-12-07T08:36:45;101905.06;;;5.97;73.61
46534;BME280;32260;52.008;4.752;2022-12-07T08:39:11;101908.72;;;6.04;73.72
46534;BME280;32260;52.008;4.752;2022-12-07T08:41:37;101914.97;;;6.11;73.59
46534;BME280;32260;52.008;4.752;2022-12-07T08:44:03;101911.53;;;6.15;73.87
46534;BME280;32260;52.008;4.752;2022-12-07T08:49:32;101897.81;;;6.36;73.76
46534;BME280;32260;52.008;4.752;2022-12-07T08:51:59;101902.25;;;6.40;73.86
46534;BME280;32260;52.008;4.752;2022-12-07T08:54:25;101895.34;;;6.48;73.83
46534;BME280;32260;52.008;4.752;2022-12-07T08:56:52;101898.09;;;6.58;73.97
46534;BME280;32260;52.008;4.752;2022-12-07T08:59:19;101896.44;;;6.63;73.85
46534;BME280;32260;52.008;4.752;2022-12-07T09:01:46;101886.84;;;6.68;74.01
46534;BME280;32260;52.008;4.752;2022-12-07T09:04:12;101890.34;;;6.70;73.70
46534;BME280;32260;52.008;4.752;2022-12-07T09:06:39;101893.91;;;6.72;73.71
46534;BME280;32260;52.008;4.752;2022-12-07T09:09:05;101892.13;;;6.73;73.50
46534;BME280;32260;52.008;4.752;2022-12-07T09:11:32;101891.31;;;6.75;73.26
46534;BME280;32260;52.008;4.752;2022-12-07T09:13:58;101885.22;;;6.79;73.36
46534;BME280;32260;52.008;4.752;2022-12-07T09:16:24;101887.06;;;6.87;73.68
46534;BME280;32260;52.008;4.752;2022-12-07T09:18:50;101888.03;;;6.95;73.28
46534;BME280;32260;52.008;4.752;2022-12-07T09:21:16;101884.66;;;7.05;73.47
46534;BME280;32260;52.008;4.752;2022-12-07T09:23:43;101893.50;;;7.13;73.25
46534;BME280;32260;52.008;4.752;2022-12-07T09:26:09;101905.03;;;7.22;73.58
46534;BME280;32260;52.008;4.752;2022-12-07T09:28:35;101910.31;;;7.25;72.87
46534;BME280;32260;52.008;4.752;2022-12-07T09:31:02;101903.28;;;7.24;72.35
46534;BME280;32260;52.008;4.752;2022-12-07T09:33:29;101898.00;;;7.22;72.93
46534;BME280;32260;52.008;4.752;2022-12-07T09:35:55;101885.66;;;7.20;72.76
46534;BME280;32260;52.008;4.752;2022-12-07T09:38:21;101896.25;;;7.23;72.16
46534;BME280;32260;52.008;4.752;2022-12-07T09:40:48;101895.34;;;7.22;72.55
46534;BME280;32260;52.008;4.752;2022-12-07T09:43:18;101897.13;;;7.22;72.18
46534;BME280;32260;52.008;4.752;2022-12-07T09:45:46;101895.34;;;7.19;72.00
46534;BME280;32260;52.008;4.752;2022-12-07T09:48:19;101895.34;;;7.22;72.07
46534;BME280;32260;52.008;4.752;2022-12-07T09:50:47;101891.81;;;7.19;71.74
46534;BME280;32260;52.008;4.752;2022-12-07T09:53:25;101892.72;;;7.21;72.21
46534;BME280;32260;52.008;4.752;2022-12-07T09:55:52;101890.00;;;7.13;72.04
46534;BME280;32260;52.008;4.752;2022-12-07T09:58:28;101887.38;;;7.13;71.73
46534;BME280;32260;52.008;4.752;2022-12-07T10:00:59;101883.81;;;7.09;72.15
46534;BME280;32260;52.008;4.752;2022-12-07T10:03:27;101879.38;;;7.05;72.11
46534;BME280;32260;52.008;4.752;2022-12-07T10:05:54;101880.19;;;7.01;72.02
46534;BME280;32260;52.008;4.752;2022-12-07T10:08:21;101877.53;;;7.00;72.20
46534;BME280;32260;52.008;4.752;2022-12-07T10:10:52;101874.97;;;7.04;72.25
46534;BME280;32260;52.008;4.752;2022-12-07T10:13:22;101876.78;;;7.10;72.28
46534;BME280;32260;52.008;4.752;2022-12-07T10:15:53;101878.63;;;7.19;72.26
46534;BME280;32260;52.008;4.752;2022-12-07T10:18:40;101875.31;;;7.35;72.82
46534;BME280;32260;52.008;4.752;2022-12-07T10:21:24;101878.94;;;7.48;72.41
46534;BME280;32260;52.008;4.752;2022-12-07T10:32:05;101865.09;;;7.75;72.57
46534;BME280;32260;52.008;4.752;2022-12-07T10:39:52;101854.50;;;7.71;72.36
46534;BME280;32260;52.008;4.752;2022-12-07T10:42:27;101856.28;;;7.73;71.99
46534;BME280;32260;52.008;4.752;2022-12-07T10:45:15;101857.22;;;7.80;71.77
46534;BME280;32260;52.008;4.752;2022-12-07T11:13:40;101816.09;;;8.12;71.42
46534;BME280;32260;52.008;4.752;2022-12-07T11:16:24;101815.22;;;8.17;71.02
46534;BME280;32260;52.008;4.752;2022-12-07T11:21:47;101809.16;;;8.32;71.51
46534;BME280;32260;52.008;4.752;2022-12-07T11:24:17;101800.38;;;8.36;71.16
46534;BME280;32260;52.008;4.752;2022-12-07T11:37:46;101783.88;;;8.98;70.74
46534;BME280;32260;52.008;4.752;2022-12-07T11:43:18;101780.38;;;9.27;70.84
46534;BME280;32260;52.008;4.752;2022-12-07T11:46:02;101779.50;;;9.35;70.21
46534;BME280;32260;52.008;4.752;2022-12-07T11:48:35;101766.25;;;9.37;68.49
46534;BME280;32260;52.008;4.752;2022-12-07T11:51:08;101767.13;;;9.41;69.20
46534;BME280;32260;52.008;4.752;2022-12-07T11:53:39;101750.41;;;9.42;69.68
46534;BME280;32260;52.008;4.752;2022-12-07T11:56:13;101758.34;;;9.38;67.54
46534;BME280;32260;52.008;4.752;2022-12-07T11:59:02;101755.69;;;9.40;66.54
46534;BME280;32260;52.008;4.752;2022-12-07T12:07:07;101751.28;;;9.28;68.14
46534;BME280;32260;52.008;4.752;2022-12-07T12:12:37;101753.03;;;9.28;68.40
46534;BME280;32260;52.008;4.752;2022-12-07T12:20:45;101758.34;;;9.14;67.62
46534;BME280;32260;52.008;4.752;2022-12-07T12:23:17;101757.44;;;8.98;65.95
46534;BME280;32260;52.008;4.752;2022-12-07T12:25:47;101751.28;;;8.97;67.44
46534;BME280;32260;52.008;4.752;2022-12-07T12:28:25;101748.63;;;8.93;67.92
46534;BME280;32260;52.008;4.752;2022-12-07T12:33:53;101752.09;;;8.65;67.42
46534;BME280;32260;52.008;4.752;2022-12-07T12:36:26;101756.47;;;8.57;67.61
46534;BME280;32260;52.008;4.752;2022-12-07T12:49:35;101735.31;;;8.49;67.31
46534;BME280;32260;52.008;4.752;2022-12-07T12:57:38;101719.41;;;8.45;66.26
46534;BME280;32260;52.008;4.752;2022-12-07T13:00:24;101707.16;;;8.59;67.07
46534;BME280;32260;52.008;4.752;2022-12-07T13:02:58;101710.72;;;8.67;67.38
46534;BME280;32260;52.008;4.752;2022-12-07T13:05:29;101708.97;;;8.79;67.21
46534;BME280;32260;52.008;4.752;2022-12-07T13:10:39;101701.91;;;8.95;66.90
46534;BME280;32260;52.008;4.752;2022-12-07T13:15:53;101695.78;;;9.17;66.50
46534;BME280;32260;52.008;4.752;2022-12-07T13:26:36;101691.31;;;9.46;64.13
46534;BME280;32260;52.008;4.752;2022-12-07T13:34:41;101685.19;;;9.36;63.83
46534;BME280;32260;52.008;4.752;2022-12-07T13:39:50;101682.53;;;9.19;62.78
46534;BME280;32260;52.008;4.752;2022-12-07T13:44:57;101671.09;;;9.20;64.82
46534;BME280;32260;52.008;4.752;2022-12-07T13:47:35;101676.34;;;9.23;65.20
46534;BME280;32260;52.008;4.752;2022-12-07T13:50:21;101676.38;;;9.18;65.20
46534;BME280;32260;52.008;4.752;2022-12-07T13:52:48;101671.97;;;9.19;64.77
46534;BME280;32260;52.008;4.752;2022-12-07T13:55:16;101667.53;;;9.19;64.31
46534;BME280;32260;52.008;4.752;2022-12-07T13:57:44;101662.28;;;9.21;65.10
46534;BME280;32260;52.008;4.752;2022-12-07T14:00:25;101670.19;;;9.24;65.01
46534;BME280;32260;52.008;4.752;2022-12-07T14:06:04;101659.56;;;9.49;66.09
46534;BME280;32260;52.008;4.752;2022-12-07T14:08:31;101662.19;;;9.55;65.76
46534;BME280;32260;52.008;4.752;2022-12-07T14:10:58;101675.44;;;9.60;64.73
46534;BME280;32260;52.008;4.752;2022-12-07T14:13:50;101664.81;;;9.67;63.81
46534;BME280;32260;52.008;4.752;2022-12-07T14:16:27;101659.53;;;9.57;64.07
46534;BME280;32260;52.008;4.752;2022-12-07T14:18:56;101660.47;;;9.45;64.18
46534;BME280;32260;52.008;4.752;2022-12-07T14:21:26;101656.06;;;9.37;63.64
46534;BME280;32260;52.008;4.752;2022-12-07T14:24:16;101641.09;;;9.33;64.31
46534;BME280;32260;52.008;4.752;2022-12-07T14:26:45;101641.13;;;9.16;63.47
46534;BME280;32260;52.008;4.752;2022-12-07T14:32:24;101630.56;;;9.02;64.04
46534;BME280;32260;52.008;4.752;2022-12-07T14:34:59;101636.72;;;8.89;64.74
46534;BME280;32260;52.008;4.752;2022-12-07T14:37:25;101643.78;;;8.84;64.64
46534;BME280;32260;52.008;4.752;2022-12-07T14:39:52;101637.63;;;8.79;65.04
46534;BME280;32260;52.008;4.752;2022-12-07T14:42:18;101630.56;;;8.71;65.15
46534;BME280;32260;52.008;4.752;2022-12-07T14:44:45;101627.06;;;8.66;64.88
46534;BME280;32260;52.008;4.752;2022-12-07T14:47:11;101631.44;;;8.61;65.73
46534;BME280;32260;52.008;4.752;2022-12-07T14:49:37;101632.31;;;8.55;65.11
46534;BME280;32260;52.008;4.752;2022-12-07T14:52:04;101631.41;;;8.47;65.90
46534;BME280;32260;52.008;4.752;2022-12-07T14:54:32;101624.34;;;8.41;66.00
46534;BME280;32260;52.008;4.752;2022-12-07T14:56:59;101619.03;;;8.37;65.65
46534;BME280;32260;52.008;4.752;2022-12-07T14:59:25;101615.50;;;8.33;65.72
46534;BME280;32260;52.008;4.752;2022-12-07T15:01:51;101614.66;;;8.31;66.24
46534;BME280;32260;52.008;4.752;2022-12-07T15:04:17;101618.13;;;8.29;65.57
46534;BME280;32260;52.008;4.752;2022-12-07T15:06:55;101614.63;;;8.28;64.49
46534;BME280;32260;52.008;4.752;2022-12-07T15:09:22;101613.72;;;8.20;65.55
46534;BME280;32260;52.008;4.752;2022-12-07T15:11:48;101611.97;;;8.13;64.38
46534;BME280;32260;52.008;4.752;2022-12-07T15:14:14;101610.19;;;8.08;65.09
46534;BME280;32260;52.008;4.752;2022-12-07T15:16:42;101606.66;;;8.03;64.91
46534;BME280;32260;52.008;4.752;2022-12-07T15:19:18;101607.53;;;8.02;65.35
46534;BME280;32260;52.008;4.752;2022-12-07T15:21:45;101600.47;;;7.93;64.86
46534;BME280;32260;52.008;4.752;2022-12-07T15:24:12;101610.16;;;7.93;65.55
46534;BME280;32260;52.008;4.752;2022-12-07T15:26:39;101611.91;;;7.88;65.45
46534;BME280;32260;52.008;4.752;2022-12-07T15:29:06;101610.09;;;7.84;65.88
46534;BME280;32260;52.008;4.752;2022-12-07T15:31:32;101602.19;;;7.81;66.13
46534;BME280;32260;52.008;4.752;2022-12-07T15:33:59;101605.66;;;7.75;65.81
46534;BME280;32260;52.008;4.752;2022-12-07T15:36:27;101603.00;;;7.69;65.72
46534;BME280;32260;52.008;4.752;2022-12-07T15:38:55;101603.00;;;7.64;66.38
46534;BME280;32260;52.008;4.752;2022-12-07T15:41:21;101589.78;;;7.61;66.38
46534;BME280;32260;52.008;4.752;2022-12-07T15:43:47;101590.66;;;7.57;66.51